sensor_id;sensor_type;location;lat;lon;timestamp;P1;durP1;ratioP1;P2;durP2;ratioP2
73487;SDS011;61721;42.206;25.320;2023-04-05T00:02:24;8.55;;;3.75;;
73487;SDS011;61721;42.206;25.320;2023-04-05T00:04:56;6.05;;;3.45;;
73487;SDS011;61721;42.206;25.320;2023-04-05T00:07:24;5.50;;;3.35;;
73487;SDS011;61721;42.206;25.320;2023-04-05T00:09:52;5.25;;;3.67;;
73487;SDS011;61721;42.206;25.320;2023-04-05T00:12:19;5.20;;;3.03;;
73487;SDS011;61721;42.206;25.320;2023-04-05T00:14:46;5.75;;;3.25;;
73487;SDS011;61721;42.206;25.320;2023-04-05T00:17:14;5.20;;;3.10;;
73487;SDS011;61721;42.206;25.320;2023-04-05T00:19:41;5.18;;;3.22;;
73487;SDS011;61721;42.206;25.320;2023-04-05T00:22:10;6.18;;;3.58;;
73487;SDS011;61721;42.206;25.320;2023-04-05T00:24:37;5.20;;;3.30;;
73487;SDS011;61721;42.206;25.320;2023-04-05T00:27:07;5.28;;;3.50;;
73487;SDS011;61721;42.206;25.320;2023-04-05T00:29:34;6.60;;;3.63;;
73487;SDS011;61721;42.206;25.320;2023-04-05T00:32:02;4.70;;;3.13;;
73487;SDS011;61721;42.206;25.320;2023-04-05T00:34:30;5.18;;;3.55;;
73487;SDS011;61721;42.206;25.320;2023-04-05T00:36:57;5.75;;;3.63;;
73487;SDS011;61721;42.206;25.320;2023-04-05T00:39:26;5.28;;;3.42;;
73487;SDS011;61721;42.206;25.320;2023-04-05T00:41:53;5.93;;;3.20;;
73487;SDS011;61721;42.206;25.320;2023-04-05T00:44:21;6.13;;;3.58;;
73487;SDS011;61721;42.206;25.320;2023-04-05T00:46:48;7.47;;;4.25;;
73487;SDS011;61721;42.206;25.320;2023-04-05T00:49:16;6.93;;;3.63;;
73487;SDS011;61721;42.206;25.320;2023-04-05T00:51:43;5.18;;;3.33;;
73487;SDS011;61721;42.206;25.320;2023-04-05T00:54:13;5.38;;;3.50;;
73487;SDS011;61721;42.206;25.320;2023-04-05T00:56:42;6.22;;;3.78;;
73487;SDS011;61721;42.206;25.320;2023-04-05T00:59:09;6.15;;;3.78;;
73487;SDS011;61721;42.206;25.320;2023-04-05T01:01:37;6.45;;;3.65;;
73487;SDS011;61721;42.206;25.320;2023-04-05T01:04:06;6.00;;;3.97;;
73487;SDS011;61721;42.206;25.320;2023-04-05T01:06:39;6.00;;;3.92;;
73487;SDS011;61721;42.206;25.320;2023-04-05T01:09:15;6.88;;;3.55;;
73487;SDS011;61721;42.206;25.320;2023-04-05T01:11:52;6.32;;;3.83;;
73487;SDS011;61721;42.206;25.320;2023-04-05T01:14:23;5.88;;;3.50;;
73487;SDS011;61721;42.206;25.320;2023-04-05T01:16:50;7.22;;;3.90;;
73487;SDS011;61721;42.206;25.320;2023-04-05T01:19:23;7.35;;;3.58;;
73487;SDS011;61721;42.206;25.320;2023-04-05T01:22:05;5.57;;;3.58;;
73487;SDS011;61721;42.206;25.320;2023-04-05T01:24:45;6.10;;;4.13;;
73487;SDS011;61721;42.206;25.320;2023-04-05T01:27:30;7.20;;;3.70;;
73487;SDS011;61721;42.206;25.320;2023-04-05T01:30:12;5.78;;;3.58;;
73487;SDS011;61721;42.206;25.320;2023-04-05T01:32:50;7.07;;;4.10;;
73487;SDS011;61721;42.206;25.320;2023-04-05T01:35:28;6.70;;;3.70;;
73487;SDS011;61721;42.206;25.320;2023-04-05T01:38:03;6.13;;;3.58;;
73487;SDS011;61721;42.206;25.320;2023-04-05T01:40:34;5.57;;;3.33;;
73487;SDS011;61721;42.206;25.320;2023-04-05T01:43:10;6.90;;;4.18;;
73487;SDS011;61721;42.206;25.320;2023-04-05T01:45:40;6.75;;;4.18;;
73487;SDS011;61721;42.206;25.320;2023-04-05T01:48:07;5.82;;;3.95;;
73487;SDS011;61721;42.206;25.320;2023-04-05T01:50:35;7.75;;;3.90;;
73487;SDS011;61721;42.206;25.320;2023-04-05T01:53:03;5.78;;;3.40;;
73487;SDS011;61721;42.206;25.320;2023-04-05T01:55:30;6.43;;;3.70;;
73487;SDS011;61721;42.206;25.320;2023-04-05T01:57:57;6.55;;;4.20;;
73487;SDS011;61721;42.206;25.320;2023-04-05T02:00:24;6.15;;;3.88;;
73487;SDS011;61721;42.206;25.320;2023-04-05T02:02:53;6.50;;;4.35;;
73487;SDS011;61721;42.206;25.320;2023-04-05T02:05:20;7.38;;;4.65;;
73487;SDS011;61721;42.206;25.320;2023-04-05T02:07:48;6.55;;;3.72;;
73487;SDS011;61721;42.206;25.320;2023-04-05T02:10:16;5.72;;;3.75;;
73487;SDS011;61721;42.206;25.320;2023-04-05T02:12:43;6.90;;;4.07;;
73487;SDS011;61721;42.206;25.320;2023-04-05T02:15:11;7.47;;;4.40;;
73487;SDS011;61721;42.206;25.320;2023-04-05T02:17:38;6.10;;;3.75;;
73487;SDS011;61721;42.206;25.320;2023-04-05T02:20:12;5.57;;;3.72;;
73487;SDS011;61721;42.206;25.320;2023-04-05T02:22:39;5.70;;;3.60;;
73487;SDS011;61721;42.206;25.320;2023-04-05T02:25:10;7.15;;;4.25;;
73487;SDS011;61721;42.206;25.320;2023-04-05T02:27:38;7.78;;;4.90;;
73487;SDS011;61721;42.206;25.320;2023-04-05T02:30:06;7.30;;;4.78;;
73487;SDS011;61721;42.206;25.320;2023-04-05T02:32:34;7.05;;;4.20;;
73487;SDS011;61721;42.206;25.320;2023-04-05T02:35:01;6.47;;;3.95;;
73487;SDS011;61721;42.206;25.320;2023-04-05T02:37:30;7.55;;;4.10;;
73487;SDS011;61721;42.206;25.320;2023-04-05T02:39:58;11.65;;;5.85;;
73487;SDS011;61721;42.206;25.320;2023-04-05T02:42:25;9.15;;;5.05;;
73487;SDS011;61721;42.206;25.320;2023-04-05T02:44:52;7.32;;;4.35;;
73487;SDS011;61721;42.206;25.320;2023-04-05T02:47:19;9.45;;;4.90;;
73487;SDS011;61721;42.206;25.320;2023-04-05T02:49:46;8.25;;;5.00;;
73487;SDS011;61721;42.206;25.320;2023-04-05T02:52:14;8.27;;;4.28;;
73487;SDS011;61721;42.206;25.320;2023-04-05T02:54:43;6.50;;;3.72;;
73487;SDS011;61721;42.206;25.320;2023-04-05T02:57:11;6.28;;;4.13;;
73487;SDS011;61721;42.206;25.320;2023-04-05T02:59:38;6.22;;;3.67;;
73487;SDS011;61721;42.206;25.320;2023-04-05T03:02:07;6.03;;;3.88;;
73487;SDS011;61721;42.206;25.320;2023-04-05T03:04:35;6.25;;;3.95;;
73487;SDS011;61721;42.206;25.320;2023-04-05T03:07:03;5.88;;;3.50;;
73487;SDS011;61721;42.206;25.320;2023-04-05T03:09:30;6.60;;;3.80;;
73487;SDS011;61721;42.206;25.320;2023-04-05T03:12:00;5.70;;;3.58;;
73487;SDS011;61721;42.206;25.320;2023-04-05T03:14:29;5.45;;;3.60;;
73487;SDS011;61721;42.206;25.320;2023-04-05T03:16:56;6.18;;;3.72;;
73487;SDS011;61721;42.206;25.320;2023-04-05T03:19:24;6.63;;;3.83;;
73487;SDS011;61721;42.206;25.320;2023-04-05T03:21:51;5.97;;;3.85;;
73487;SDS011;61721;42.206;25.320;2023-04-05T03:24:19;5.57;;;3.78;;
73487;SDS011;61721;42.206;25.320;2023-04-05T03:26:46;5.25;;;3.30;;
73487;SDS011;61721;42.206;25.320;2023-04-05T03:29:15;6.25;;;3.83;;
73487;SDS011;61721;42.206;25.320;2023-04-05T03:31:43;6.88;;;4.18;;
73487;SDS011;61721;42.206;25.320;2023-04-05T03:34:10;6.97;;;4.28;;
73487;SDS011;61721;42.206;25.320;2023-04-05T03:36:38;6.70;;;4.30;;
73487;SDS011;61721;42.206;25.320;2023-04-05T03:39:08;6.63;;;4.10;;
73487;SDS011;61721;42.206;25.320;2023-04-05T03:41:36;7.05;;;4.22;;
73487;SDS011;61721;42.206;25.320;2023-04-05T03:44:04;6.40;;;3.88;;
73487;SDS011;61721;42.206;25.320;2023-04-05T03:46:33;6.85;;;3.97;;
73487;SDS011;61721;42.206;25.320;2023-04-05T03:49:02;7.35;;;4.00;;
73487;SDS011;61721;42.206;25.320;2023-04-05T03:51:29;6.10;;;4.00;;
73487;SDS011;61721;42.206;25.320;2023-04-05T03:53:56;5.97;;;3.50;;
73487;SDS011;61721;42.206;25.320;2023-04-05T03:56:24;6.45;;;3.95;;
73487;SDS011;61721;42.206;25.320;2023-04-05T03:58:51;5.68;;;3.65;;
73487;SDS011;61721;42.206;25.320;2023-04-05T04:01:19;8.82;;;4.38;;
73487;SDS011;61721;42.206;25.320;2023-04-05T04:03:47;6.68;;;4.00;;
73487;SDS011;61721;42.206;25.320;2023-04-05T04:06:15;6.25;;;3.85;;
73487;SDS011;61721;42.206;25.320;2023-04-05T04:08:42;6.78;;;4.13;;
73487;SDS011;61721;42.206;25.320;2023-04-05T04:11:10;6.97;;;4.22;;
73487;SDS011;61721;42.206;25.320;2023-04-05T04:13:37;6.35;;;4.38;;
73487;SDS011;61721;42.206;25.320;2023-04-05T04:16:04;9.25;;;4.78;;
73487;SDS011;61721;42.206;25.320;2023-04-05T04:18:32;6.72;;;4.30;;
73487;SDS011;61721;42.206;25.320;2023-04-05T04:21:02;6.63;;;4.28;;
73487;SDS011;61721;42.206;25.320;2023-04-05T04:23:31;6.35;;;4.05;;
73487;SDS011;61721;42.206;25.320;2023-04-05T04:25:58;6.03;;;3.83;;
73487;SDS011;61721;42.206;25.320;2023-04-05T04:28:26;6.78;;;4.10;;
73487;SDS011;61721;42.206;25.320;2023-04-05T04:30:53;6.97;;;4.03;;
73487;SDS011;61721;42.206;25.320;2023-04-05T04:33:20;6.93;;;4.13;;
73487;SDS011;61721;42.206;25.320;2023-04-05T04:35:48;6.00;;;3.97;;
73487;SDS011;61721;42.206;25.320;2023-04-05T04:38:20;6.25;;;4.10;;
73487;SDS011;61721;42.206;25.320;2023-04-05T04:40:50;6.85;;;3.90;;
73487;SDS011;61721;42.206;25.320;2023-04-05T04:43:18;6.30;;;4.00;;
73487;SDS011;61721;42.206;25.320;2023-04-05T04:45:51;6.72;;;3.92;;
73487;SDS011;61721;42.206;25.320;2023-04-05T04:48:19;6.50;;;3.65;;
73487;SDS011;61721;42.206;25.320;2023-04-05T04:50:47;7.20;;;4.35;;
73487;SDS011;61721;42.206;25.320;2023-04-05T04:53:15;9.73;;;6.75;;
73487;SDS011;61721;42.206;25.320;2023-04-05T04:55:44;9.50;;;6.35;;
73487;SDS011;61721;42.206;25.320;2023-04-05T04:58:14;10.88;;;5.55;;
73487;SDS011;61721;42.206;25.320;2023-04-05T05:00:42;6.65;;;4.47;;
73487;SDS011;61721;42.206;25.320;2023-04-05T05:03:10;6.80;;;4.22;;
73487;SDS011;61721;42.206;25.320;2023-04-05T05:05:41;6.70;;;4.10;;
73487;SDS011;61721;42.206;25.320;2023-04-05T05:08:08;6.50;;;4.20;;
73487;SDS011;61721;42.206;25.320;2023-04-05T05:10:36;7.45;;;4.28;;
73487;SDS011;61721;42.206;25.320;2023-04-05T05:13:04;8.55;;;5.28;;
73487;SDS011;61721;42.206;25.320;2023-04-05T05:15:31;9.60;;;5.70;;
73487;SDS011;61721;42.206;25.320;2023-04-05T05:17:58;8.70;;;4.63;;
73487;SDS011;61721;42.206;25.320;2023-04-05T05:20:26;7.97;;;4.57;;
73487;SDS011;61721;42.206;25.320;2023-04-05T05:22:54;15.45;;;7.20;;
73487;SDS011;61721;42.206;25.320;2023-04-05T05:25:21;11.23;;;5.30;;
73487;SDS011;61721;42.206;25.320;2023-04-05T05:27:48;5.90;;;3.65;;
73487;SDS011;61721;42.206;25.320;2023-04-05T05:30:17;8.05;;;4.60;;
73487;SDS011;61721;42.206;25.320;2023-04-05T05:32:45;12.77;;;6.65;;
73487;SDS011;61721;42.206;25.320;2023-04-05T05:35:12;13.32;;;7.80;;
73487;SDS011;61721;42.206;25.320;2023-04-05T05:37:39;13.90;;;7.25;;
73487;SDS011;61721;42.206;25.320;2023-04-05T05:40:07;29.75;;;8.55;;
73487;SDS011;61721;42.206;25.320;2023-04-05T05:42:37;40.78;;;11.95;;
73487;SDS011;61721;42.206;25.320;2023-04-05T05:45:05;21.45;;;7.32;;
73487;SDS011;61721;42.206;25.320;2023-04-05T05:47:34;34.97;;;10.95;;
73487;SDS011;61721;42.206;25.320;2023-04-05T05:50:01;25.15;;;11.30;;
73487;SDS011;61721;42.206;25.320;2023-04-05T05:52:29;16.77;;;8.73;;
73487;SDS011;61721;42.206;25.320;2023-04-05T05:54:56;17.42;;;8.07;;
73487;SDS011;61721;42.206;25.320;2023-04-05T05:57:23;7.97;;;4.72;;
73487;SDS011;61721;42.206;25.320;2023-04-05T05:59:51;10.65;;;5.90;;
73487;SDS011;61721;42.206;25.320;2023-04-05T06:02:19;12.88;;;5.80;;
73487;SDS011;61721;42.206;25.320;2023-04-05T06:04:47;12.73;;;6.95;;
73487;SDS011;61721;42.206;25.320;2023-04-05T06:07:15;9.13;;;5.45;;
73487;SDS011;61721;42.206;25.320;2023-04-05T06:09:42;18.35;;;10.07;;
73487;SDS011;61721;42.206;25.320;2023-04-05T06:12:11;12.63;;;6.40;;
73487;SDS011;61721;42.206;25.320;2023-04-05T06:14:39;9.93;;;7.43;;
73487;SDS011;61721;42.206;25.320;2023-04-05T06:17:06;8.10;;;4.53;;
73487;SDS011;61721;42.206;25.320;2023-04-05T06:19:33;8.45;;;4.18;;
73487;SDS011;61721;42.206;25.320;2023-04-05T06:22:01;9.43;;;5.88;;
73487;SDS011;61721;42.206;25.320;2023-04-05T06:24:29;10.30;;;5.38;;
73487;SDS011;61721;42.206;25.320;2023-04-05T06:26:57;7.53;;;4.93;;
73487;SDS011;61721;42.206;25.320;2023-04-05T06:29:24;9.23;;;5.72;;
73487;SDS011;61721;42.206;25.320;2023-04-05T06:31:51;7.40;;;4.35;;
73487;SDS011;61721;42.206;25.320;2023-04-05T06:34:19;8.27;;;4.70;;
73487;SDS011;61721;42.206;25.320;2023-04-05T06:36:46;9.52;;;4.95;;
73487;SDS011;61721;42.206;25.320;2023-04-05T06:39:14;8.02;;;4.32;;
73487;SDS011;61721;42.206;25.320;2023-04-05T06:41:41;10.05;;;5.80;;
73487;SDS011;61721;42.206;25.320;2023-04-05T06:44:09;9.35;;;4.82;;
73487;SDS011;61721;42.206;25.320;2023-04-05T06:46:36;10.32;;;6.65;;
73487;SDS011;61721;42.206;25.320;2023-04-05T06:49:03;7.80;;;4.82;;
73487;SDS011;61721;42.206;25.320;2023-04-05T06:51:30;8.02;;;4.20;;
73487;SDS011;61721;42.206;25.320;2023-04-05T06:53:57;9.57;;;5.82;;
73487;SDS011;61721;42.206;25.320;2023-04-05T06:56:26;7.15;;;4.47;;
73487;SDS011;61721;42.206;25.320;2023-04-05T06:58:53;8.77;;;5.78;;
73487;SDS011;61721;42.206;25.320;2023-04-05T07:01:22;11.57;;;5.95;;
73487;SDS011;61721;42.206;25.320;2023-04-05T07:03:51;7.50;;;4.60;;
73487;SDS011;61721;42.206;25.320;2023-04-05T07:06:19;8.27;;;4.40;;
73487;SDS011;61721;42.206;25.320;2023-04-05T07:08:48;6.35;;;3.50;;
73487;SDS011;61721;42.206;25.320;2023-04-05T07:11:15;6.45;;;3.72;;
73487;SDS011;61721;42.206;25.320;2023-04-05T07:13:43;7.78;;;4.60;;
73487;SDS011;61721;42.206;25.320;2023-04-05T07:16:11;6.88;;;3.97;;
73487;SDS011;61721;42.206;25.320;2023-04-05T07:18:38;5.30;;;3.25;;
73487;SDS011;61721;42.206;25.320;2023-04-05T07:21:05;5.28;;;3.30;;
73487;SDS011;61721;42.206;25.320;2023-04-05T07:23:32;5.55;;;3.33;;
73487;SDS011;61721;42.206;25.320;2023-04-05T07:26:00;8.10;;;3.83;;
73487;SDS011;61721;42.206;25.320;2023-04-05T07:28:30;6.50;;;3.40;;
73487;SDS011;61721;42.206;25.320;2023-04-05T07:31:01;6.75;;;4.10;;
73487;SDS011;61721;42.206;25.320;2023-04-05T07:33:28;5.90;;;3.72;;
73487;SDS011;61721;42.206;25.320;2023-04-05T07:35:55;7.72;;;4.55;;
73487;SDS011;61721;42.206;25.320;2023-04-05T07:38:23;8.80;;;4.90;;
73487;SDS011;61721;42.206;25.320;2023-04-05T07:40:50;5.70;;;3.55;;
73487;SDS011;61721;42.206;25.320;2023-04-05T07:43:18;7.25;;;3.83;;
73487;SDS011;61721;42.206;25.320;2023-04-05T07:45:45;5.45;;;3.25;;
73487;SDS011;61721;42.206;25.320;2023-04-05T07:48:14;5.55;;;3.40;;
73487;SDS011;61721;42.206;25.320;2023-04-05T07:50:41;6.60;;;4.43;;
73487;SDS011;61721;42.206;25.320;2023-04-05T07:53:12;9.13;;;5.60;;
73487;SDS011;61721;42.206;25.320;2023-04-05T07:55:39;8.13;;;4.78;;
73487;SDS011;61721;42.206;25.320;2023-04-05T07:58:06;5.43;;;3.60;;
73487;SDS011;61721;42.206;25.320;2023-04-05T08:00:34;7.18;;;4.80;;
73487;SDS011;61721;42.206;25.320;2023-04-05T08:03:02;5.78;;;3.45;;
73487;SDS011;61721;42.206;25.320;2023-04-05T08:05:31;7.10;;;4.20;;
73487;SDS011;61721;42.206;25.320;2023-04-05T08:07:58;5.13;;;2.85;;
73487;SDS011;61721;42.206;25.320;2023-04-05T08:10:25;5.13;;;2.97;;
73487;SDS011;61721;42.206;25.320;2023-04-05T08:12:53;5.47;;;3.00;;
73487;SDS011;61721;42.206;25.320;2023-04-05T08:15:20;5.75;;;3.58;;
73487;SDS011;61721;42.206;25.320;2023-04-05T08:17:47;7.38;;;3.72;;
73487;SDS011;61721;42.206;25.320;2023-04-05T08:20:14;5.32;;;3.65;;
73487;SDS011;61721;42.206;25.320;2023-04-05T08:22:44;5.13;;;3.20;;
73487;SDS011;61721;42.206;25.320;2023-04-05T08:25:11;5.63;;;3.35;;
73487;SDS011;61721;42.206;25.320;2023-04-05T08:27:38;8.13;;;3.42;;
73487;SDS011;61721;42.206;25.320;2023-04-05T08:30:06;6.50;;;3.58;;
73487;SDS011;61721;42.206;25.320;2023-04-05T08:32:34;9.55;;;4.95;;
73487;SDS011;61721;42.206;25.320;2023-04-05T08:35:01;7.03;;;3.55;;
73487;SDS011;61721;42.206;25.320;2023-04-05T08:37:33;5.43;;;2.92;;
73487;SDS011;61721;42.206;25.320;2023-04-05T08:40:02;5.50;;;3.38;;
73487;SDS011;61721;42.206;25.320;2023-04-05T08:42:31;8.55;;;3.30;;
73487;SDS011;61721;42.206;25.320;2023-04-05T08:45:02;6.20;;;3.33;;
73487;SDS011;61721;42.206;25.320;2023-04-05T08:47:34;4.88;;;2.70;;
73487;SDS011;61721;42.206;25.320;2023-04-05T08:50:03;5.45;;;2.85;;
73487;SDS011;61721;42.206;25.320;2023-04-05T08:52:31;7.57;;;4.43;;
73487;SDS011;61721;42.206;25.320;2023-04-05T08:55:04;8.95;;;4.97;;
73487;SDS011;61721;42.206;25.320;2023-04-05T08:57:31;6.00;;;3.67;;
73487;SDS011;61721;42.206;25.320;2023-04-05T09:00:03;5.03;;;3.03;;
73487;SDS011;61721;42.206;25.320;2023-04-05T09:02:35;5.28;;;3.13;;
73487;SDS011;61721;42.206;25.320;2023-04-05T09:05:04;6.07;;;3.33;;
73487;SDS011;61721;42.206;25.320;2023-04-05T09:07:35;4.93;;;2.80;;
73487;SDS011;61721;42.206;25.320;2023-04-05T09:10:05;5.30;;;3.30;;
73487;SDS011;61721;42.206;25.320;2023-04-05T09:12:35;4.70;;;3.10;;
73487;SDS011;61721;42.206;25.320;2023-04-05T09:15:03;7.82;;;3.22;;
73487;SDS011;61721;42.206;25.320;2023-04-05T09:17:30;5.07;;;2.83;;
73487;SDS011;61721;42.206;25.320;2023-04-05T09:19:59;4.50;;;2.55;;
73487;SDS011;61721;42.206;25.320;2023-04-05T09:22:26;5.35;;;2.85;;
73487;SDS011;61721;42.206;25.320;2023-04-05T09:24:53;4.93;;;3.03;;
73487;SDS011;61721;42.206;25.320;2023-04-05T09:27:22;6.47;;;3.53;;
73487;SDS011;61721;42.206;25.320;2023-04-05T09:29:49;17.80;;;7.78;;
73487;SDS011;61721;42.206;25.320;2023-04-05T09:32:17;5.13;;;3.10;;
73487;SDS011;61721;42.206;25.320;2023-04-05T09:34:46;13.45;;;6.97;;
73487;SDS011;61721;42.206;25.320;2023-04-05T09:37:14;7.65;;;3.70;;
73487;SDS011;61721;42.206;25.320;2023-04-05T09:39:44;5.32;;;2.88;;
73487;SDS011;61721;42.206;25.320;2023-04-05T09:42:13;10.27;;;5.38;;
73487;SDS011;61721;42.206;25.320;2023-04-05T09:44:53;7.00;;;3.72;;
73487;SDS011;61721;42.206;25.320;2023-04-05T09:47:22;14.63;;;6.38;;
73487;SDS011;61721;42.206;25.320;2023-04-05T09:52:19;4.57;;;2.67;;
73487;SDS011;61721;42.206;25.320;2023-04-05T09:54:47;5.15;;;3.13;;
73487;SDS011;61721;42.206;25.320;2023-04-05T09:57:15;4.90;;;2.65;;
73487;SDS011;61721;42.206;25.320;2023-04-05T09:59:43;4.82;;;2.80;;
73487;SDS011;61721;42.206;25.320;2023-04-05T10:02:12;7.32;;;2.90;;
73487;SDS011;61721;42.206;25.320;2023-04-05T10:04:40;4.38;;;2.28;;
73487;SDS011;61721;42.206;25.320;2023-04-05T10:07:09;6.15;;;2.63;;
73487;SDS011;61721;42.206;25.320;2023-04-05T10:09:38;4.38;;;2.55;;
73487;SDS011;61721;42.206;25.320;2023-04-05T10:12:06;4.32;;;2.50;;
73487;SDS011;61721;42.206;25.320;2023-04-05T10:14:34;6.00;;;3.10;;
73487;SDS011;61721;42.206;25.320;2023-04-05T10:17:09;4.35;;;2.70;;
73487;SDS011;61721;42.206;25.320;2023-04-05T10:19:50;5.50;;;2.58;;
73487;SDS011;61721;42.206;25.320;2023-04-05T10:22:29;4.85;;;2.85;;
73487;SDS011;61721;42.206;25.320;2023-04-05T10:25:02;4.30;;;2.65;;
73487;SDS011;61721;42.206;25.320;2023-04-05T10:27:32;4.80;;;2.75;;
73487;SDS011;61721;42.206;25.320;2023-04-05T10:30:05;4.88;;;3.00;;
73487;SDS011;61721;42.206;25.320;2023-04-05T10:32:40;4.65;;;2.95;;
73487;SDS011;61721;42.206;25.320;2023-04-05T10:35:16;7.53;;;3.00;;
73487;SDS011;61721;42.206;25.320;2023-04-05T10:37:52;5.03;;;2.72;;
73487;SDS011;61721;42.206;25.320;2023-04-05T10:40:31;5.32;;;2.67;;
73487;SDS011;61721;42.206;25.320;2023-04-05T10:42:58;4.32;;;2.63;;
73487;SDS011;61721;42.206;25.320;2023-04-05T10:45:27;5.57;;;2.33;;
73487;SDS011;61721;42.206;25.320;2023-04-05T10:47:56;4.43;;;2.47;;
73487;SDS011;61721;42.206;25.320;2023-04-05T10:50:40;5.40;;;2.65;;
73487;SDS011;61721;42.206;25.320;2023-04-05T10:53:09;4.50;;;2.50;;
73487;SDS011;61721;42.206;25.320;2023-04-05T10:55:38;9.57;;;4.68;;
73487;SDS011;61721;42.206;25.320;2023-04-05T10:58:05;10.48;;;4.30;;
73487;SDS011;61721;42.206;25.320;2023-04-05T11:00:33;10.15;;;4.60;;
73487;SDS011;61721;42.206;25.320;2023-04-05T11:03:01;5.32;;;3.10;;
73487;SDS011;61721;42.206;25.320;2023-04-05T11:05:32;5.57;;;3.08;;
73487;SDS011;61721;42.206;25.320;2023-04-05T11:08:04;3.78;;;2.10;;
73487;SDS011;61721;42.206;25.320;2023-04-05T11:10:33;10.38;;;4.78;;
73487;SDS011;61721;42.206;25.320;2023-04-05T11:15:30;8.00;;;3.85;;
73487;SDS011;61721;42.206;25.320;2023-04-05T11:18:07;24.08;;;8.27;;
73487;SDS011;61721;42.206;25.320;2023-04-05T11:20:38;15.25;;;6.10;;
73487;SDS011;61721;42.206;25.320;2023-04-05T11:23:07;4.55;;;2.92;;
73487;SDS011;61721;42.206;25.320;2023-04-05T11:25:36;8.85;;;3.95;;
73487;SDS011;61721;42.206;25.320;2023-04-05T11:28:04;10.50;;;4.60;;
73487;SDS011;61721;42.206;25.320;2023-04-05T11:30:45;29.33;;;10.57;;
73487;SDS011;61721;42.206;25.320;2023-04-05T11:36:32;6.13;;;2.70;;
73487;SDS011;61721;42.206;25.320;2023-04-05T11:39:24;8.52;;;3.65;;
73487;SDS011;61721;42.206;25.320;2023-04-05T11:41:55;16.65;;;6.15;;
73487;SDS011;61721;42.206;25.320;2023-04-05T11:44:26;11.35;;;4.75;;
73487;SDS011;61721;42.206;25.320;2023-04-05T11:46:55;13.48;;;7.75;;
73487;SDS011;61721;42.206;25.320;2023-04-05T11:49:22;4.60;;;2.90;;
73487;SDS011;61721;42.206;25.320;2023-04-05T11:51:52;5.53;;;3.22;;
73487;SDS011;61721;42.206;25.320;2023-04-05T11:54:32;5.28;;;2.60;;
73487;SDS011;61721;42.206;25.320;2023-04-05T11:56:59;4.82;;;2.40;;
73487;SDS011;61721;42.206;25.320;2023-04-05T11:59:31;4.18;;;2.40;;
73487;SDS011;61721;42.206;25.320;2023-04-05T12:01:59;5.72;;;2.75;;
73487;SDS011;61721;42.206;25.320;2023-04-05T12:04:28;4.63;;;2.15;;
73487;SDS011;61721;42.206;25.320;2023-04-05T12:07:13;5.70;;;2.90;;
73487;SDS011;61721;42.206;25.320;2023-04-05T12:10:00;5.75;;;3.15;;
73487;SDS011;61721;42.206;25.320;2023-04-05T12:12:33;4.68;;;2.42;;
73487;SDS011;61721;42.206;25.320;2023-04-05T12:15:02;5.13;;;2.00;;
73487;SDS011;61721;42.206;25.320;2023-04-05T12:17:42;4.63;;;2.25;;
73487;SDS011;61721;42.206;25.320;2023-04-05T12:20:14;4.70;;;2.15;;
73487;SDS011;61721;42.206;25.320;2023-04-05T12:22:45;4.85;;;2.38;;
73487;SDS011;61721;42.206;25.320;2023-04-05T12:25:14;4.20;;;2.47;;
73487;SDS011;61721;42.206;25.320;2023-04-05T12:27:44;3.90;;;1.98;;
73487;SDS011;61721;42.206;25.320;2023-04-05T12:30:13;4.10;;;2.00;;
73487;SDS011;61721;42.206;25.320;2023-04-05T12:32:42;4.32;;;2.17;;
73487;SDS011;61721;42.206;25.320;2023-04-05T12:35:11;3.90;;;2.13;;
73487;SDS011;61721;42.206;25.320;2023-04-05T12:37:39;3.47;;;1.80;;
73487;SDS011;61721;42.206;25.320;2023-04-05T12:40:09;6.88;;;3.03;;
73487;SDS011;61721;42.206;25.320;2023-04-05T12:42:37;5.22;;;2.38;;
73487;SDS011;61721;42.206;25.320;2023-04-05T12:45:06;5.07;;;2.50;;
73487;SDS011;61721;42.206;25.320;2023-04-05T12:47:45;3.90;;;1.77;;
73487;SDS011;61721;42.206;25.320;2023-04-05T12:50:14;4.18;;;1.98;;
73487;SDS011;61721;42.206;25.320;2023-04-05T12:52:53;3.90;;;2.05;;
73487;SDS011;61721;42.206;25.320;2023-04-05T12:55:30;4.18;;;2.00;;
73487;SDS011;61721;42.206;25.320;2023-04-05T12:58:06;4.32;;;2.20;;
73487;SDS011;61721;42.206;25.320;2023-04-05T13:00:34;3.58;;;2.05;;
73487;SDS011;61721;42.206;25.320;2023-04-05T13:03:01;3.60;;;1.85;;
73487;SDS011;61721;42.206;25.320;2023-04-05T13:05:29;4.88;;;2.50;;
73487;SDS011;61721;42.206;25.320;2023-04-05T13:07:56;4.40;;;2.25;;
73487;SDS011;61721;42.206;25.320;2023-04-05T13:10:23;4.82;;;2.42;;
73487;SDS011;61721;42.206;25.320;2023-04-05T13:12:53;4.35;;;2.20;;
73487;SDS011;61721;42.206;25.320;2023-04-05T13:15:20;4.75;;;2.35;;
73487;SDS011;61721;42.206;25.320;2023-04-05T13:17:47;4.65;;;2.25;;
73487;SDS011;61721;42.206;25.320;2023-04-05T13:20:17;4.65;;;2.38;;
73487;SDS011;61721;42.206;25.320;2023-04-05T13:22:45;6.53;;;3.28;;
73487;SDS011;61721;42.206;25.320;2023-04-05T13:25:12;5.57;;;2.65;;
73487;SDS011;61721;42.206;25.320;2023-04-05T13:27:40;6.95;;;3.63;;
73487;SDS011;61721;42.206;25.320;2023-04-05T13:30:09;8.73;;;4.13;;
73487;SDS011;61721;42.206;25.320;2023-04-05T13:32:37;7.38;;;3.83;;
73487;SDS011;61721;42.206;25.320;2023-04-05T13:35:04;22.70;;;10.00;;
73487;SDS011;61721;42.206;25.320;2023-04-05T13:37:33;13.85;;;7.15;;
73487;SDS011;61721;42.206;25.320;2023-04-05T13:40:01;9.52;;;5.22;;
73487;SDS011;61721;42.206;25.320;2023-04-05T13:42:29;10.70;;;5.25;;
73487;SDS011;61721;42.206;25.320;2023-04-05T13:44:58;10.75;;;5.07;;
73487;SDS011;61721;42.206;25.320;2023-04-05T13:47:26;7.15;;;3.95;;
73487;SDS011;61721;42.206;25.320;2023-04-05T13:49:53;6.10;;;3.67;;
73487;SDS011;61721;42.206;25.320;2023-04-05T13:52:20;5.35;;;3.08;;
73487;SDS011;61721;42.206;25.320;2023-04-05T13:54:50;5.90;;;3.63;;
73487;SDS011;61721;42.206;25.320;2023-04-05T13:57:18;9.43;;;5.35;;
73487;SDS011;61721;42.206;25.320;2023-04-05T13:59:46;8.98;;;4.18;;
73487;SDS011;61721;42.206;25.320;2023-04-05T14:02:13;4.35;;;2.83;;
73487;SDS011;61721;42.206;25.320;2023-04-05T14:04:45;4.85;;;2.42;;
73487;SDS011;61721;42.206;25.320;2023-04-05T14:07:13;3.60;;;2.05;;
73487;SDS011;61721;42.206;25.320;2023-04-05T14:09:41;3.55;;;1.90;;
73487;SDS011;61721;42.206;25.320;2023-04-05T14:12:09;4.32;;;2.20;;
73487;SDS011;61721;42.206;25.320;2023-04-05T14:14:36;4.03;;;2.35;;
73487;SDS011;61721;42.206;25.320;2023-04-05T14:17:03;3.55;;;1.90;;
73487;SDS011;61721;42.206;25.320;2023-04-05T14:19:31;3.60;;;2.13;;
73487;SDS011;61721;42.206;25.320;2023-04-05T14:22:00;4.25;;;2.20;;
73487;SDS011;61721;42.206;25.320;2023-04-05T14:24:27;3.83;;;2.13;;
73487;SDS011;61721;42.206;25.320;2023-04-05T14:26:55;5.45;;;3.00;;
73487;SDS011;61721;42.206;25.320;2023-04-05T14:29:22;3.92;;;2.30;;
73487;SDS011;61721;42.206;25.320;2023-04-05T14:31:49;4.78;;;2.50;;
73487;SDS011;61721;42.206;25.320;2023-04-05T14:34:16;3.90;;;2.20;;
73487;SDS011;61721;42.206;25.320;2023-04-05T14:36:44;4.40;;;2.03;;
73487;SDS011;61721;42.206;25.320;2023-04-05T14:39:12;3.85;;;2.33;;
73487;SDS011;61721;42.206;25.320;2023-04-05T14:41:40;4.30;;;2.53;;
73487;SDS011;61721;42.206;25.320;2023-04-05T14:44:08;4.32;;;2.47;;
73487;SDS011;61721;42.206;25.320;2023-04-05T14:46:35;4.63;;;2.22;;
73487;SDS011;61721;42.206;25.320;2023-04-05T14:49:02;4.40;;;2.70;;
73487;SDS011;61721;42.206;25.320;2023-04-05T14:51:29;5.63;;;2.97;;
73487;SDS011;61721;42.206;25.320;2023-04-05T14:53:57;5.28;;;2.90;;